KIDA/IDA METAR and TAF weather

Enter ICAO airport designator
Station Type Date Time Source
KIDA METAR 2020/01/19 13:53 UTC NOAA

KIDA 191353Z 05004KT 10SM CLR M16/M18 A3054 RMK AO2 SLP424 T11611183


Station Type Date Time Source
KIDA Decoded METAR 2020/01/19 13:53 UTC NOAA

IDAHO FALLS REGIONAL AIRPORT, ID, United States (KIDA) 43-31N 112-04W 1453M
Jan 19, 2020 - 08:53 AM EST / 2020.01.19 1353 UTC
Wind: from the NE (050 degrees) at 5 MPH (4 KT):0
Visibility: 10 mile(s):0
Sky conditions: clear
Temperature: 3.0 F (-16.1 C)
Windchill: -7 F (-22 C):2
Dew Point: -0.9 F (-18.3 C)
Relative Humidity: 83%
Pressure (altimeter): 30.54 in. Hg (1034 hPa)
ob: KIDA 191353Z 05004KT 10SM CLR M16/M18 A3054 RMK AO2 SLP424 T11611183
cycle: 14

Station Type Date Time Source
KIDA TAF 2020/01/19 12:24 UTC NOAA

TAF KIDA 191122Z 1912/2012 01006KT P6SM FEW040

Example: see airport list